PAMR/MRI METAR and TAF weather

Enter ICAO airport designator
Station Type Date Time Source
PAMR METAR 2019/08/18 08:53 UTC NOAA

PAMR 180853Z 35015G22KT CLR 17/00 A3010 RMK AO2 SLP191 T01670000 402390111 58005 $


Station Type Date Time Source
PAMR Decoded METAR 2019/08/18 08:53 UTC NOAA

Station name not available
Aug 18, 2019 - 04:53 AM EDT / 2019.08.18 0853 UTC
Wind: from the N (350 degrees) at 17 MPH (15 KT) gusting to 25 MPH (22 KT):0
Sky conditions: clear
Temperature: 62.1 F (16.7 C)
Dew Point: 32.0 F (0.0 C)
Relative Humidity: 32%
Pressure (altimeter): 30.1 in. Hg (1019 hPa)
Pressure tendency: 0.01 inches (0.5 hPa) lower than three hours ago
ob: PAMR 180853Z 35015G22KT CLR 17/00 A3010 RMK AO2 SLP191 T01670000 402390111 58005
cycle: 9

Station Type Date Time Source
PAMR TAF UTC NOAA

Error!

Example: see airport list